首页
METAR-TAF:

METAR-TAF

机场 :

莫吉廖夫機場

莫吉廖夫, 白俄罗斯

纬度: 53-57-18N, 经度: 030-05-42E, 海拔: 194米

当前天气观测

该预报发布于7小时和32分钟前的13:30 UTC
风速8节,风向
温度 9°C
湿度 49%
气压 1021 hPa
能见度10公里或以上
多云层高于4400英尺

METAR: UMOO 231330Z 35004MPS 9999 BKN044 09/M01 Q1021 R31/CLRD// NOSIG

时间: 00:02 (21:02 UTC)

预报

该预报发布于10小时和2分钟前的11:00 UTC
预报有效从23日的 12点(UTC)到 23日的 21点(UTC)
风速10节,风向西转西北
能见度10公里或以上
多云层高于2500英尺
短暂存在
从 23日的 12点(UTC)到 23日的 18点(UTC)
风速14节,风向北转西北
短暂存在
从 23日的 18点(UTC)到 23日的 21点(UTC)
风速4节,风向多变
能見度: 1200
多云层高于400英尺
轻雾

TAF: UMOO 231100Z 2312/2321 30005MPS 9999 BKN025 TEMPO 2312/2318 34007MPS TEMPO 2318/2321 VRB02MPS 1200 BR BKN004

超过4000个机场的气象观测和天气预报(METAR&TAF报告)。

可查询的气象台以黄色和红色小点在地图上表示。

将鼠标移到小点上方,可查看气象台名称。

然后点击查看天气观测和预报。

如需切换地图:点击带黑十字的绿色按钮放大地图;点击带横线的绿色按钮缩小地图;或者点击绿色箭头查看邻近地区的地图。


METAR-TAF: